createdAt,value
2023-03-29T00:02:07.965Z,95.44
2023-03-29T00:04:41.682Z,94.47
2023-03-29T00:07:15.516Z,93.17
2023-03-29T00:09:48.513Z,92.42
2023-03-29T00:12:21.129Z,92.53
2023-03-29T00:14:53.769Z,94.12
2023-03-29T00:17:26.825Z,95.24
2023-03-29T00:19:59.457Z,91.61
2023-03-29T00:22:32.527Z,93.01
2023-03-29T00:25:07.338Z,93.43
2023-03-29T00:27:39.332Z,93.81
2023-03-29T00:30:15.202Z,93.39
2023-03-29T00:32:48.216Z,93.58
2023-03-29T00:35:21.252Z,93.66
2023-03-29T00:37:53.729Z,93.40
2023-03-29T00:40:26.177Z,92.55
2023-03-29T00:43:00.628Z,91.77
2023-03-29T00:45:35.544Z,92.16
2023-03-29T00:48:12.363Z,92.20
2023-03-29T00:51:01.767Z,92.20
2023-03-29T00:53:38.020Z,91.88
2023-03-29T00:56:16.919Z,94.16
2023-03-29T00:59:17.896Z,94.61
2023-03-29T01:01:55.367Z,94.64
2023-03-29T01:04:52.961Z,92.18
2023-03-29T01:07:55.713Z,92.23
2023-03-29T01:10:41.504Z,91.79
2023-03-29T01:13:18.091Z,91.85
2023-03-29T01:15:51.374Z,90.82
2023-03-29T01:18:24.172Z,92.33
2023-03-29T01:21:24.768Z,92.17
2023-03-29T01:24:33.424Z,92.30
2023-03-29T01:27:52.199Z,90.86
2023-03-29T01:30:41.836Z,91.23
2023-03-29T01:33:25.940Z,92.58
2023-03-29T01:36:05.825Z,92.46
2023-03-29T01:38:49.006Z,91.96
2023-03-29T01:41:32.447Z,90.93
2023-03-29T01:44:11.526Z,91.88
2023-03-29T01:46:53.723Z,90.42
2023-03-29T01:49:52.175Z,89.71
2023-03-29T01:52:48.241Z,91.34
2023-03-29T01:55:26.433Z,91.75
2023-03-29T01:58:00.780Z,91.64
2023-03-29T02:00:34.363Z,92.33
2023-03-29T02:03:10.300Z,91.34
2023-03-29T02:05:42.999Z,90.88
2023-03-29T02:08:17.805Z,91.27
2023-03-29T02:10:51.888Z,92.05
2023-03-29T02:13:25.162Z,92.05
2023-03-29T02:15:59.619Z,92.38
2023-03-29T02:18:32.520Z,92.61
2023-03-29T02:21:05.081Z,92.69
2023-03-29T02:23:45.584Z,92.51
2023-03-29T02:26:19.166Z,89.88
2023-03-29T02:28:52.950Z,90.62
2023-03-29T02:31:52.690Z,90.72
2023-03-29T02:34:37.749Z,91.64
2023-03-29T02:37:13.509Z,91.95
2023-03-29T02:39:47.808Z,91.82
2023-03-29T02:42:20.634Z,92.00
2023-03-29T02:44:57.126Z,90.92
2023-03-29T02:47:48.791Z,92.03
2023-03-29T02:50:22.303Z,90.53
2023-03-29T02:53:00.864Z,91.02
2023-03-29T02:55:36.063Z,91.56
2023-03-29T02:58:12.870Z,90.79
2023-03-29T03:00:48.837Z,92.16
2023-03-29T03:03:22.649Z,92.23
2023-03-29T03:05:56.169Z,91.61
2023-03-29T03:08:30.127Z,91.43
2023-03-29T03:11:03.978Z,91.38
2023-03-29T03:13:38.327Z,91.66
2023-03-29T03:16:12.120Z,91.30
2023-03-29T03:18:46.178Z,90.92
2023-03-29T03:21:21.033Z,91.69
2023-03-29T03:23:54.446Z,91.37
2023-03-29T03:26:29.543Z,91.78
2023-03-29T03:29:02.075Z,90.77
2023-03-29T03:31:54.451Z,91.28
2023-03-29T03:34:31.529Z,90.79
2023-03-29T03:37:05.968Z,90.67
2023-03-29T03:39:39.526Z,89.52
2023-03-29T03:42:13.627Z,89.57
2023-03-29T03:44:48.026Z,89.47
2023-03-29T03:47:25.694Z,91.17
2023-03-29T03:49:59.937Z,90.52
2023-03-29T03:52:33.118Z,89.10
2023-03-29T03:55:08.479Z,88.71
2023-03-29T03:57:54.971Z,89.47
2023-03-29T04:00:27.948Z,89.00
2023-03-29T04:03:04.937Z,89.20
2023-03-29T04:05:43.567Z,88.19
2023-03-29T04:08:17.051Z,89.29
2023-03-29T04:11:07.781Z,89.74
2023-03-29T04:13:42.408Z,88.10
2023-03-29T04:16:20.098Z,89.27
2023-03-29T04:18:52.753Z,89.23
2023-03-29T04:21:27.482Z,87.48
2023-03-29T04:26:33.322Z,87.99
2023-03-29T04:29:11.166Z,87.27
2023-03-29T04:34:39.364Z,89.20
2023-03-29T04:37:12.603Z,89.50
2023-03-29T04:39:45.697Z,90.01
2023-03-29T04:42:19.238Z,89.80
2023-03-29T04:44:53.383Z,88.53
2023-03-29T04:47:31.779Z,89.09
2023-03-29T04:50:10.830Z,87.17
2023-03-29T04:52:45.775Z,87.60
2023-03-29T04:55:18.816Z,87.88
2023-03-29T04:57:59.227Z,86.94
2023-03-29T05:00:36.981Z,87.45
2023-03-29T05:03:28.092Z,87.25
2023-03-29T05:06:07.303Z,89.06
2023-03-29T05:08:41.854Z,88.58
2023-03-29T05:11:20.211Z,87.62
2023-03-29T05:13:53.207Z,88.49
2023-03-29T05:16:26.727Z,87.78
2023-03-29T05:19:01.140Z,89.34
2023-03-29T05:21:35.466Z,87.60
2023-03-29T05:24:11.110Z,87.72
2023-03-29T05:26:46.866Z,88.42
2023-03-29T05:29:20.879Z,88.90
2023-03-29T05:31:56.463Z,86.67
2023-03-29T05:34:30.147Z,87.90
2023-03-29T05:37:04.092Z,87.25
2023-03-29T05:39:38.389Z,88.21
2023-03-29T05:42:13.741Z,88.40
2023-03-29T05:44:58.676Z,88.09
2023-03-29T05:47:31.972Z,88.25
2023-03-29T05:50:05.350Z,87.97
2023-03-29T05:52:38.953Z,87.90
2023-03-29T05:55:12.520Z,87.74
2023-03-29T05:57:45.943Z,86.94
2023-03-29T06:00:22.034Z,85.87
2023-03-29T06:03:03.765Z,86.43
2023-03-29T06:05:32.402Z,87.18
2023-03-29T06:08:05.888Z,87.25
2023-03-29T06:10:42.568Z,88.03
2023-03-29T06:13:20.596Z,87.83
2023-03-29T06:15:55.050Z,87.58
2023-03-29T06:18:30.322Z,87.15
2023-03-29T06:21:04.447Z,87.13
2023-03-29T06:23:38.135Z,86.83
2023-03-29T06:26:11.202Z,85.88
2023-03-29T06:28:44.346Z,87.61
2023-03-29T06:31:17.683Z,87.66
2023-03-29T06:33:51.072Z,88.22
2023-03-29T06:36:37.918Z,87.80
2023-03-29T06:39:12.220Z,87.04
2023-03-29T06:41:46.587Z,86.69
2023-03-29T06:44:25.715Z,86.60
2023-03-29T06:47:02.692Z,86.57
2023-03-29T06:49:35.713Z,86.48
2023-03-29T06:52:11.252Z,88.16
2023-03-29T06:54:44.318Z,88.64
2023-03-29T06:57:18.921Z,87.67
2023-03-29T06:59:53.267Z,87.22
2023-03-29T07:02:29.215Z,86.70
2023-03-29T07:05:14.699Z,86.50
2023-03-29T07:08:00.014Z,87.71
2023-03-29T07:10:53.499Z,86.86
2023-03-29T07:13:44.613Z,87.89
2023-03-29T07:16:19.560Z,87.67
2023-03-29T07:19:11.400Z,87.15
2023-03-29T07:22:02.339Z,85.52
2023-03-29T07:24:42.737Z,85.65
2023-03-29T07:27:16.609Z,86.64
2023-03-29T07:29:51.575Z,86.88
2023-03-29T07:32:24.349Z,85.59
2023-03-29T07:35:04.943Z,85.89
2023-03-29T07:37:39.570Z,84.56
2023-03-29T07:40:16.361Z,86.05
2023-03-29T07:43:06.206Z,85.01
2023-03-29T07:45:40.529Z,85.81
2023-03-29T07:48:19.650Z,84.45
2023-03-29T07:50:59.883Z,85.33
2023-03-29T07:53:37.206Z,85.52
2023-03-29T07:56:12.090Z,83.94
2023-03-29T07:58:46.961Z,84.78
2023-03-29T08:01:20.645Z,85.19
2023-03-29T08:04:07.419Z,84.75
2023-03-29T08:06:44.234Z,85.70
2023-03-29T08:09:17.681Z,86.15
2023-03-29T08:11:51.108Z,85.40
2023-03-29T08:14:26.146Z,85.49
2023-03-29T08:17:03.916Z,84.59
2023-03-29T08:19:37.297Z,85.21
2023-03-29T08:22:12.592Z,84.70
2023-03-29T08:25:04.472Z,84.51
2023-03-29T08:27:39.056Z,84.90
2023-03-29T08:30:14.693Z,85.75
2023-03-29T08:32:50.928Z,84.98
2023-03-29T08:35:21.567Z,84.33
2023-03-29T08:37:58.546Z,85.29
2023-03-29T08:40:32.235Z,84.93
2023-03-29T08:43:55.820Z,83.84
2023-03-29T08:47:03.088Z,84.53
2023-03-29T08:49:44.760Z,85.86
2023-03-29T08:52:26.494Z,85.61
2023-03-29T08:54:59.932Z,84.49
2023-03-29T08:57:36.245Z,84.28
2023-03-29T09:00:14.990Z,84.47
2023-03-29T09:03:00.291Z,84.37
2023-03-29T09:05:36.458Z,84.13
2023-03-29T09:08:18.408Z,85.21
2023-03-29T09:11:12.774Z,85.52
2023-03-29T09:14:24.508Z,85.54
2023-03-29T09:17:26.562Z,85.96
2023-03-29T09:20:10.603Z,85.10
2023-03-29T09:22:54.666Z,85.36
2023-03-29T09:26:16.506Z,85.65
2023-03-29T09:29:17.854Z,85.73
2023-03-29T09:31:50.411Z,84.68
2023-03-29T09:34:34.885Z,84.74
2023-03-29T09:37:16.813Z,85.38
2023-03-29T09:39:49.767Z,86.23
2023-03-29T09:42:23.337Z,85.94
2023-03-29T09:45:08.061Z,83.76
2023-03-29T09:47:53.766Z,85.05
2023-03-29T09:50:41.384Z,84.46
2023-03-29T09:53:19.898Z,85.00
2023-03-29T09:55:55.633Z,83.87
2023-03-29T09:58:43.306Z,83.72
2023-03-29T10:01:18.762Z,84.81
2023-03-29T10:03:54.035Z,84.82
2023-03-29T10:06:27.171Z,84.10
2023-03-29T10:09:04.870Z,84.95
2023-03-29T10:11:39.777Z,84.73
2023-03-29T10:14:22.507Z,84.07
2023-03-29T10:16:59.475Z,83.42
2023-03-29T10:19:36.839Z,83.98
2023-03-29T10:22:29.203Z,85.08
2023-03-29T10:25:02.380Z,84.97
2023-03-29T10:27:35.451Z,83.03
2023-03-29T10:30:16.469Z,82.81
2023-03-29T10:32:58.246Z,83.00
2023-03-29T10:35:43.440Z,83.92
2023-03-29T10:38:19.263Z,84.83
2023-03-29T10:40:55.229Z,84.31
2023-03-29T10:43:32.036Z,84.73
2023-03-29T10:46:23.740Z,84.44
2023-03-29T10:49:09.005Z,83.63
2023-03-29T10:51:45.791Z,82.98
2023-03-29T10:54:22.019Z,83.42
2023-03-29T10:56:59.465Z,82.85
2023-03-29T10:59:36.261Z,83.81
2023-03-29T11:02:32.292Z,83.68
2023-03-29T11:05:10.739Z,83.85
2023-03-29T11:08:15.446Z,83.22
2023-03-29T11:11:12.789Z,82.30
2023-03-29T11:14:02.743Z,81.76
2023-03-29T11:16:42.249Z,80.80
2023-03-29T11:19:43.607Z,82.60
2023-03-29T11:22:29.167Z,82.27
2023-03-29T11:25:22.378Z,81.76
2023-03-29T11:28:07.887Z,82.11
2023-03-29T11:31:12.501Z,82.00
2023-03-29T11:34:15.966Z,79.58
2023-03-29T11:37:08.870Z,80.82
2023-03-29T11:39:49.640Z,80.12
2023-03-29T11:42:29.942Z,79.79
2023-03-29T11:45:05.169Z,78.75
2023-03-29T11:47:39.277Z,79.31
2023-03-29T11:50:28.843Z,79.49
2023-03-29T11:53:09.414Z,78.03
2023-03-29T11:55:42.148Z,78.83
2023-03-29T11:58:22.960Z,79.03
2023-03-29T12:01:00.814Z,78.76
2023-03-29T12:04:00.586Z,78.50
2023-03-29T12:06:56.675Z,76.85
2023-03-29T12:09:42.640Z,77.58
2023-03-29T12:12:25.375Z,76.45
2023-03-29T12:15:25.096Z,77.42
2023-03-29T12:18:27.171Z,77.97
2023-03-29T12:21:03.418Z,77.47
2023-03-29T12:23:44.194Z,76.72
2023-03-29T12:26:38.082Z,76.47
2023-03-29T12:29:42.254Z,100.00
2023-03-29T12:32:39.073Z,75.29
2023-03-29T12:35:52.922Z,75.02
2023-03-29T12:38:42.578Z,73.84
2023-03-29T12:41:37.215Z,71.40
2023-03-29T12:44:27.463Z,72.10
2023-03-29T12:47:04.286Z,73.34
2023-03-29T12:49:39.299Z,73.73
2023-03-29T12:52:36.831Z,73.04
2023-03-29T12:55:54.391Z,73.79
2023-03-29T12:58:58.600Z,74.99
2023-03-29T13:01:37.876Z,73.34
2023-03-29T13:04:21.426Z,73.35
2023-03-29T13:07:04.793Z,72.42
2023-03-29T13:09:58.727Z,73.87
2023-03-29T13:12:43.368Z,74.42
2023-03-29T13:15:37.781Z,74.76
2023-03-29T13:18:34.277Z,74.30
2023-03-29T13:21:15.271Z,73.07
2023-03-29T13:24:18.947Z,73.26
2023-03-29T13:27:18.732Z,72.91
2023-03-29T13:30:09.347Z,73.18
2023-03-29T13:33:27.817Z,72.47
2023-03-29T13:36:11.258Z,73.19
2023-03-29T13:38:48.962Z,73.40
2023-03-29T13:41:44.643Z,74.29
2023-03-29T13:44:33.228Z,74.00
2023-03-29T13:47:27.725Z,74.46
2023-03-29T13:50:06.271Z,74.52
2023-03-29T13:52:42.756Z,74.23
2023-03-29T13:55:30.954Z,74.13
2023-03-29T13:58:07.639Z,73.42
2023-03-29T14:00:59.835Z,73.81
2023-03-29T14:03:38.490Z,74.43
2023-03-29T14:06:11.612Z,74.34
2023-03-29T14:08:45.455Z,74.78
2023-03-29T14:11:31.051Z,73.87
2023-03-29T14:14:06.729Z,73.81
2023-03-29T14:16:42.785Z,73.73
2023-03-29T14:19:34.233Z,73.75
2023-03-29T14:22:13.794Z,74.38
2023-03-29T14:24:56.986Z,74.10
2023-03-29T14:27:32.366Z,74.39
2023-03-29T14:30:25.117Z,74.40
2023-03-29T14:32:58.830Z,74.20
2023-03-29T14:35:33.499Z,73.44
2023-03-29T14:38:06.456Z,73.54
2023-03-29T14:40:39.012Z,73.56
2023-03-29T14:43:13.380Z,74.39
2023-03-29T14:45:46.620Z,74.64
2023-03-29T14:48:21.023Z,74.64
2023-03-29T14:50:53.816Z,74.73
2023-03-29T14:53:29.042Z,74.23
2023-03-29T14:56:02.389Z,75.32
2023-03-29T14:58:36.574Z,75.84
2023-03-29T15:01:21.735Z,75.65
2023-03-29T15:04:09.176Z,75.16
2023-03-29T15:06:44.410Z,76.09
2023-03-29T15:09:26.383Z,76.54
2023-03-29T15:12:00.660Z,76.22
2023-03-29T15:14:35.168Z,75.11
2023-03-29T15:17:39.089Z,75.07
2023-03-29T15:20:11.669Z,76.20
2023-03-29T15:23:06.940Z,76.06
2023-03-29T15:25:52.441Z,75.74
2023-03-29T15:28:34.034Z,77.29
2023-03-29T15:31:45.541Z,77.05
2023-03-29T15:34:28.828Z,76.50
2023-03-29T15:37:02.672Z,77.27
2023-03-29T15:39:39.011Z,76.71
2023-03-29T15:42:11.775Z,76.18
2023-03-29T15:44:44.679Z,75.69
2023-03-29T15:47:17.543Z,75.70
2023-03-29T15:49:51.842Z,76.40
2023-03-29T15:52:25.609Z,76.78
2023-03-29T15:54:59.208Z,76.23
2023-03-29T15:57:31.793Z,77.30
2023-03-29T16:00:08.222Z,76.68
2023-03-29T16:02:43.370Z,76.68
2023-03-29T16:05:17.498Z,77.19
2023-03-29T16:07:52.130Z,77.70
2023-03-29T16:10:24.890Z,77.71
2023-03-29T16:12:58.059Z,76.77
2023-03-29T16:15:31.218Z,77.08
2023-03-29T16:18:04.010Z,76.48
2023-03-29T16:20:38.416Z,76.82
2023-03-29T16:23:11.774Z,76.74
2023-03-29T16:25:44.853Z,77.09
2023-03-29T16:28:18.761Z,77.44
2023-03-29T16:30:51.933Z,78.09
2023-03-29T16:33:25.131Z,77.82
2023-03-29T16:35:58.948Z,78.18
2023-03-29T16:38:34.207Z,78.30
2023-03-29T16:41:28.421Z,78.51
2023-03-29T16:44:02.080Z,77.80
2023-03-29T16:46:34.965Z,79.13
2023-03-29T16:49:08.723Z,79.36
2023-03-29T16:51:42.319Z,79.44
2023-03-29T16:54:15.722Z,79.29
2023-03-29T16:56:48.989Z,78.28
2023-03-29T16:59:22.496Z,78.89
2023-03-29T17:01:55.079Z,79.94
2023-03-29T17:04:27.860Z,79.95
2023-03-29T17:07:01.419Z,79.64
2023-03-29T17:09:35.603Z,79.38
2023-03-29T17:12:08.222Z,78.91
2023-03-29T17:14:42.168Z,79.97
2023-03-29T17:17:15.780Z,80.01
2023-03-29T17:19:48.517Z,79.55
2023-03-29T17:22:21.104Z,79.97
2023-03-29T17:24:54.697Z,79.80
2023-03-29T17:27:28.128Z,79.08
2023-03-29T17:30:00.549Z,79.59
2023-03-29T17:32:34.297Z,80.17
2023-03-29T17:35:08.087Z,80.47
2023-03-29T17:37:42.104Z,80.20
2023-03-29T17:40:16.333Z,80.78
2023-03-29T17:42:51.607Z,81.04
2023-03-29T17:45:25.531Z,80.68
2023-03-29T17:47:58.260Z,80.58
2023-03-29T17:50:31.540Z,80.50
2023-03-29T17:53:05.739Z,80.20
2023-03-29T17:55:41.986Z,79.87
2023-03-29T17:58:14.983Z,79.48
2023-03-29T18:01:00.521Z,79.48
2023-03-29T18:03:34.810Z,79.63
2023-03-29T18:06:08.867Z,79.85
2023-03-29T18:08:41.707Z,80.10
2023-03-29T18:11:20.718Z,80.44
2023-03-29T18:13:54.365Z,80.61
2023-03-29T18:16:27.464Z,80.27
2023-03-29T18:19:00.296Z,80.58
2023-03-29T18:21:33.173Z,79.93
2023-03-29T18:24:06.636Z,80.11
2023-03-29T18:26:39.637Z,79.68
2023-03-29T18:29:12.929Z,79.87
2023-03-29T18:31:46.414Z,80.52
2023-03-29T18:34:19.159Z,80.59
2023-03-29T18:36:54.024Z,80.42
2023-03-29T18:39:27.436Z,80.48
2023-03-29T18:42:01.804Z,80.91
2023-03-29T18:44:35.397Z,80.94
2023-03-29T18:47:08.898Z,81.17
2023-03-29T18:49:43.327Z,81.22
2023-03-29T18:52:15.784Z,81.12
2023-03-29T18:54:48.471Z,81.60
2023-03-29T18:57:21.278Z,81.46
2023-03-29T18:59:54.771Z,80.80
2023-03-29T19:02:27.870Z,81.38
2023-03-29T19:05:01.971Z,81.04
2023-03-29T19:07:35.586Z,80.63
2023-03-29T19:10:09.560Z,80.63
2023-03-29T19:12:42.699Z,80.30
2023-03-29T19:15:16.580Z,80.00
2023-03-29T19:17:50.653Z,80.52
2023-03-29T19:20:25.165Z,80.27
2023-03-29T19:22:58.146Z,80.66
2023-03-29T19:25:32.416Z,80.33
2023-03-29T19:28:05.109Z,80.72
2023-03-29T19:30:37.750Z,80.54
2023-03-29T19:33:11.608Z,80.61
2023-03-29T19:35:46.424Z,80.84
2023-03-29T19:38:21.792Z,80.99
2023-03-29T19:40:54.981Z,80.26
2023-03-29T19:43:28.699Z,80.50
2023-03-29T19:46:11.109Z,80.86
2023-03-29T19:48:43.700Z,80.44
2023-03-29T19:51:31.339Z,80.25
2023-03-29T19:54:04.983Z,80.00
2023-03-29T19:56:38.069Z,79.76
2023-03-29T19:59:15.657Z,80.03
2023-03-29T20:01:49.944Z,79.99
2023-03-29T20:04:24.686Z,80.19
2023-03-29T20:06:57.830Z,80.10
2023-03-29T20:09:30.782Z,80.24
2023-03-29T20:12:03.902Z,80.51
2023-03-29T20:14:38.606Z,80.58
2023-03-29T20:17:11.421Z,80.48
2023-03-29T20:19:44.776Z,80.13
2023-03-29T20:22:19.188Z,80.53
2023-03-29T20:24:52.048Z,80.21
2023-03-29T20:27:25.691Z,80.08
2023-03-29T20:29:58.341Z,80.07
2023-03-29T20:32:31.232Z,80.02
2023-03-29T20:35:04.844Z,79.20
2023-03-29T20:37:37.535Z,79.31
2023-03-29T20:40:13.180Z,79.23
2023-03-29T20:42:46.332Z,78.90
2023-03-29T20:45:21.969Z,79.01
2023-03-29T20:48:02.478Z,79.06
2023-03-29T20:50:36.924Z,79.05
2023-03-29T20:53:09.728Z,78.74
2023-03-29T20:55:42.926Z,78.50
2023-03-29T20:58:16.179Z,77.81
2023-03-29T21:00:48.703Z,77.94
2023-03-29T21:03:22.603Z,77.66
2023-03-29T21:05:57.591Z,77.89
2023-03-29T21:08:31.339Z,77.70
2023-03-29T21:11:04.481Z,77.21
2023-03-29T21:13:48.752Z,77.13
2023-03-29T21:16:21.359Z,77.35
2023-03-29T21:18:54.208Z,77.70
2023-03-29T21:21:26.657Z,77.45
2023-03-29T21:24:00.216Z,78.00
2023-03-29T21:26:33.078Z,78.22
2023-03-29T21:29:05.763Z,77.68
2023-03-29T21:31:40.260Z,77.70
2023-03-29T21:34:12.828Z,77.81
2023-03-29T21:36:47.056Z,78.06
2023-03-29T21:39:19.417Z,78.35
2023-03-29T21:41:51.895Z,78.74
2023-03-29T21:44:26.418Z,78.67
2023-03-29T21:46:59.071Z,78.28
2023-03-29T21:49:32.426Z,78.61
2023-03-29T21:52:05.260Z,78.70
2023-03-29T21:54:39.549Z,79.07
2023-03-29T21:57:12.370Z,79.07
2023-03-29T21:59:44.835Z,78.93
2023-03-29T22:02:17.925Z,78.63
2023-03-29T22:04:50.296Z,78.55
2023-03-29T22:07:25.635Z,78.71
2023-03-29T22:09:58.922Z,78.72
2023-03-29T22:12:34.778Z,78.77
2023-03-29T22:15:10.886Z,78.72
2023-03-29T22:17:43.652Z,78.53
2023-03-29T22:20:18.566Z,78.84
2023-03-29T22:22:52.421Z,78.91
2023-03-29T22:25:25.176Z,79.38
2023-03-29T22:27:58.336Z,79.43
2023-03-29T22:30:31.225Z,79.30
2023-03-29T22:33:04.093Z,79.61
2023-03-29T22:35:38.201Z,79.74
2023-03-29T22:38:10.951Z,79.28
2023-03-29T22:40:43.960Z,79.21
2023-03-29T22:43:16.549Z,79.11
2023-03-29T22:45:50.105Z,79.25
2023-03-29T22:48:23.355Z,79.58
2023-03-29T22:50:55.748Z,79.86
2023-03-29T22:53:28.946Z,79.61
2023-03-29T22:56:01.508Z,79.49
2023-03-29T22:58:34.129Z,80.55
2023-03-29T23:01:08.486Z,80.23
2023-03-29T23:03:41.945Z,79.91
2023-03-29T23:06:14.693Z,79.81
2023-03-29T23:08:47.813Z,80.33
2023-03-29T23:11:21.679Z,80.08
2023-03-29T23:13:55.336Z,79.98
2023-03-29T23:16:27.988Z,80.14
2023-03-29T23:19:01.499Z,78.71
2023-03-29T23:21:35.792Z,78.71
2023-03-29T23:24:09.687Z,79.01
2023-03-29T23:26:44.107Z,78.95
2023-03-29T23:29:16.752Z,79.26
2023-03-29T23:31:50.290Z,79.62
2023-03-29T23:34:23.280Z,79.52
2023-03-29T23:36:57.169Z,79.30
2023-03-29T23:39:29.914Z,79.58
2023-03-29T23:42:03.630Z,79.91
2023-03-29T23:44:37.944Z,80.19
2023-03-29T23:47:11.477Z,79.92
2023-03-29T23:49:45.708Z,80.19
2023-03-29T23:52:18.493Z,80.02
2023-03-29T23:54:52.278Z,80.39
2023-03-29T23:57:27.924Z,79.73
